Time;durP1;ratioP1;P1;durP2;ratioP2;P2;SDS_P1;SDS_P2;PMS_P1;PMS_P2;Temp;Humidity;BMP_temperature;BMP_pressure;BME280_temperature;BME280_humidity;BME280_pressure;Samples;Min_cycle;Max_cycle;Signal;HPM_P1;HPM_P2
2022/05/09 00:00:32;;;;;;;18.70;13.63;;;13.30;99.90;;;;;;5022660;28;20462;-49
2022/05/09 00:02:58;;;;;;;21.43;14.63;;;13.30;99.90;;;;;;4993829;28;20440;-49
2022/05/09 00:05:26;;;;;;;19.13;14.48;;;13.30;99.90;;;;;;5026333;28;20764;-49
2022/05/09 00:07:52;;;;;;;19.80;14.10;;;13.30;99.90;;;;;;5014628;28;20516;-49
2022/05/09 00:10:22;;;;;;;19.30;13.93;;;13.30;99.90;;;;;;5012270;28;20619;-49
2022/05/09 00:12:48;;;;;;;20.38;14.35;;;13.30;99.90;;;;;;5015426;28;20401;-49
2022/05/09 00:15:16;;;;;;;21.50;14.30;;;13.30;99.90;;;;;;5011357;28;20395;-49
2022/05/09 00:17:45;;;;;;;21.00;13.77;;;13.30;99.90;;;;;;5007661;28;20422;-49
2022/05/09 00:20:12;;;;;;;20.05;14.38;;;13.20;99.90;;;;;;4991211;28;20414;-49
2022/05/09 00:22:53;;;;;;;21.10;14.25;;;13.20;99.90;;;;;;5005330;28;20393;-49
2022/05/09 00:25:26;;;;;;;18.83;13.70;;;13.20;99.90;;;;;;5010584;28;20758;-49
2022/05/09 00:27:53;;;;;;;20.53;14.90;;;13.20;99.90;;;;;;5011484;28;20475;-49
2022/05/09 00:30:19;;;;;;;18.58;13.73;;;13.10;99.90;;;;;;5010712;28;20385;-49
2022/05/09 00:32:45;;;;;;;19.35;13.98;;;13.00;99.90;;;;;;5011002;28;20385;-49
2022/05/09 00:35:12;;;;;;;21.25;14.57;;;12.90;99.90;;;;;;5010219;28;20953;-49
2022/05/09 00:37:37;;;;;;;19.20;13.45;;;12.90;99.90;;;;;;5011137;28;20388;-49
2022/05/09 00:40:08;;;;;;;19.30;13.00;;;12.80;99.90;;;;;;5010816;28;20385;-50
2022/05/09 00:42:34;;;;;;;21.92;14.60;;;12.60;99.90;;;;;;5011087;28;20385;-49
2022/05/09 00:45:01;;;;;;;22.02;15.40;;;12.40;99.90;;;;;;5010781;28;20419;-48
2022/05/09 00:47:27;;;;;;;24.52;16.67;;;12.20;99.90;;;;;;5010637;28;20404;-49
2022/05/09 00:49:57;;;;;;;21.75;15.73;;;12.10;99.90;;;;;;5023703;28;20392;-49
2022/05/09 00:52:47;;;;;;;22.08;15.23;;;12.10;99.90;;;;;;4995024;28;21237;-49
2022/05/09 00:55:25;;;;;;;23.23;15.32;;;12.20;99.90;;;;;;5016427;28;20499;-49
2022/05/09 00:57:52;;;;;;;23.37;16.70;;;12.20;99.90;;;;;;5019228;28;20757;-49
2022/05/09 01:00:21;;;;;;;24.52;16.27;;;12.20;99.90;;;;;;5010448;28;20466;-49
2022/05/09 01:02:59;;;;;;;24.25;16.70;;;12.20;99.90;;;;;;5017698;28;20944;-49
2022/05/09 01:05:27;;;;;;;20.33;15.00;;;12.30;99.90;;;;;;5014618;28;21002;-49
2022/05/09 01:07:54;;;;;;;21.88;15.48;;;12.40;99.90;;;;;;5025428;28;20404;-49
2022/05/09 01:10:24;;;;;;;22.30;16.08;;;12.30;99.90;;;;;;5009138;28;20440;-49
2022/05/09 01:12:51;;;;;;;21.95;15.70;;;12.40;99.90;;;;;;5010311;28;20393;-49
2022/05/09 01:15:17;;;;;;;21.92;15.40;;;12.40;99.90;;;;;;5009406;28;20711;-49
2022/05/09 01:17:48;;;;;;;21.63;15.02;;;12.40;99.90;;;;;;5015133;28;20553;-49
2022/05/09 01:20:15;;;;;;;21.35;15.30;;;12.30;99.90;;;;;;5027263;28;20395;-49
2022/05/09 01:22:42;;;;;;;20.00;14.67;;;12.30;99.90;;;;;;5018052;28;20484;-49
2022/05/09 01:25:11;;;;;;;20.10;15.40;;;12.30;1.00;;;;;;5024298;28;20423;-50
2022/05/09 01:27:40;;;;;;;20.02;14.68;;;12.20;1.00;;;;;;5014810;28;20509;-49
2022/05/09 01:30:30;;;;;;;19.92;14.63;;;12.20;1.00;;;;;;5018756;28;20408;-50
2022/05/09 01:32:59;;;;;;;21.88;15.70;;;12.10;1.00;;;;;;5012384;28;20392;-49
2022/05/09 01:35:38;;;;;;;21.08;15.30;;;12.10;1.00;;;;;;5023418;28;20412;-49
2022/05/09 01:38:36;;;;;;;22.90;15.32;;;12.10;1.00;;;;;;5020635;28;20714;-49
2022/05/09 01:41:02;;;;;;;20.95;14.80;;;12.10;1.00;;;;;;5027568;28;20399;-49
2022/05/09 01:43:36;;;;;;;23.25;16.58;;;12.00;1.00;;;;;;5019663;28;20866;-50
2022/05/09 01:46:05;;;;;;;21.35;15.30;;;12.00;1.00;;;;;;5011676;28;20515;-49
2022/05/09 01:51:16;;;;;;;21.00;15.70;;;12.10;1.00;;;;;;5023628;28;20407;-49
2022/05/09 01:53:45;;;;;;;20.42;15.90;;;12.00;1.00;;;;;;5015518;28;20396;-49
2022/05/09 01:56:13;;;;;;;21.90;15.38;;;12.00;1.00;;;;;;5009005;28;20487;-50
2022/05/09 01:58:38;;;;;;;21.77;15.25;;;11.90;1.00;;;;;;5009445;28;20389;-50
2022/05/09 02:01:05;;;;;;;20.08;14.73;;;11.90;1.00;;;;;;5009375;28;20402;-50
2022/05/09 02:03:31;;;;;;;20.65;14.82;;;11.80;1.00;;;;;;5008954;28;20404;-50
2022/05/09 02:05:57;;;;;;;26.57;16.67;;;11.60;1.00;;;;;;5009025;28;20758;-49
2022/05/09 02:08:22;;;;;;;23.50;17.27;;;11.40;1.00;;;;;;5008726;28;20551;-50
2022/05/09 02:10:48;;;;;;;25.60;17.23;;;11.40;1.00;;;;;;5009420;28;20386;-50
2022/05/09 02:13:13;;;;;;;23.90;16.97;;;11.30;1.00;;;;;;5008546;28;20381;-50
2022/05/09 02:15:40;;;;;;;22.10;15.50;;;11.40;1.00;;;;;;5009676;28;20416;-51
2022/05/09 02:18:05;;;;;;;21.95;16.20;;;11.30;1.00;;;;;;5009066;28;20417;-51
2022/05/09 02:20:31;;;;;;;24.00;15.57;;;11.40;1.00;;;;;;5008620;28;20846;-50
2022/05/09 02:22:57;;;;;;;21.98;15.52;;;11.40;1.00;;;;;;5009183;28;20506;-50
2022/05/09 02:25:33;;;;;;;24.30;16.50;;;11.60;1.00;;;;;;5015867;28;20875;-49
2022/05/09 02:28:01;;;;;;;22.67;16.27;;;11.50;1.00;;;;;;5017586;28;20408;-50
2022/05/09 02:30:28;;;;;;;21.85;14.90;;;11.50;1.00;;;;;;5011663;28;20567;-54
2022/05/09 02:32:53;;;;;;;20.63;14.80;;;11.40;1.00;;;;;;5012100;28;20444;-47
2022/05/09 02:35:22;;;;;;;20.95;14.48;;;11.40;1.00;;;;;;5023655;28;20504;-48
2022/05/09 02:37:50;;;;;;;22.58;15.15;;;11.30;1.00;;;;;;5019639;28;20421;-48
2022/05/09 02:40:17;;;;;;;21.30;15.45;;;11.30;1.00;;;;;;5019608;28;20912;-48
2022/05/09 02:42:43;;;;;;;24.25;15.45;;;11.30;1.00;;;;;;5022115;28;20397;-50
2022/05/09 02:45:10;;;;;;;21.30;15.70;;;11.30;1.00;;;;;;5014621;28;20418;-51
2022/05/09 02:47:36;;;;;;;21.17;15.60;;;11.30;1.00;;;;;;5024200;28;20464;-50
2022/05/09 02:50:02;;;;;;;21.60;14.97;;;11.30;1.00;;;;;;5011913;28;20405;-50
2022/05/09 02:52:28;;;;;;;22.03;14.40;;;11.20;1.00;;;;;;5023577;28;20451;-50
2022/05/09 02:54:54;;;;;;;21.67;14.65;;;11.20;1.00;;;;;;5018897;28;20770;-48
2022/05/09 02:57:20;;;;;;;21.58;14.80;;;11.10;1.00;;;;;;5008063;28;20476;-48
2022/05/09 02:59:45;;;;;;;24.40;15.63;;;11.10;1.00;;;;;;5012968;28;20510;-48
2022/05/09 03:02:11;;;;;;;20.50;14.90;;;11.00;1.00;;;;;;5025542;28;20395;-48
2022/05/09 03:04:39;;;;;;;21.37;14.27;;;11.00;1.00;;;;;;5023656;28;20423;-49
2022/05/09 03:07:11;;;;;;;22.75;14.57;;;11.00;1.00;;;;;;5019336;28;20416;-49
2022/05/09 03:09:37;;;;;;;23.77;17.20;;;11.10;1.00;;;;;;5022682;28;20397;-49
2022/05/09 03:12:04;;;;;;;20.98;15.23;;;11.20;1.00;;;;;;5015825;28;20500;-49
2022/05/09 03:14:31;;;;;;;21.95;15.48;;;11.20;1.00;;;;;;5014788;28;20424;-49
2022/05/09 03:16:57;;;;;;;23.90;15.75;;;11.10;1.00;;;;;;5015250;28;20400;-50
2022/05/09 03:19:24;;;;;;;20.85;15.80;;;11.20;1.00;;;;;;4999407;28;20459;-49
2022/05/09 03:21:51;;;;;;;22.40;15.73;;;11.20;1.00;;;;;;5025389;28;20399;-49
2022/05/09 03:24:17;;;;;;;21.88;15.70;;;11.20;1.00;;;;;;5029435;28;20402;-49
2022/05/09 03:26:43;;;;;;;22.13;15.50;;;11.20;1.00;;;;;;5026847;28;20418;-49
2022/05/09 03:29:09;;;;;;;24.58;15.75;;;11.10;1.00;;;;;;5026817;28;20409;-50
2022/05/09 03:31:35;;;;;;;22.63;15.68;;;11.10;1.00;;;;;;5014775;28;20718;-49
2022/05/09 03:34:01;;;;;;;22.67;15.63;;;11.00;1.00;;;;;;5010460;28;20407;-49
2022/05/09 03:36:27;;;;;;;23.30;15.52;;;11.00;1.00;;;;;;4995208;28;21377;-49
2022/05/09 03:38:52;;;;;;;22.58;15.50;;;11.00;1.00;;;;;;5010601;28;20426;-49
2022/05/09 03:41:18;;;;;;;22.55;14.88;;;11.00;1.00;;;;;;5010952;28;20507;-49
2022/05/09 03:43:44;;;;;;;20.70;14.53;;;10.90;1.00;;;;;;5014007;28;20446;-49
2022/05/09 03:46:10;;;;;;;21.08;14.40;;;10.90;1.00;;;;;;5011646;28;20409;-50
2022/05/09 03:48:35;;;;;;;20.00;14.05;;;10.80;1.00;;;;;;5011720;28;20419;-49
2022/05/09 03:51:01;;;;;;;22.97;16.03;;;10.80;1.00;;;;;;5014003;28;20403;-49
2022/05/09 03:53:28;;;;;;;24.60;15.20;;;10.80;1.00;;;;;;5011133;28;20419;-49
2022/05/09 03:55:54;;;;;;;25.88;17.15;;;10.80;1.00;;;;;;5012833;28;20420;-49
2022/05/09 03:58:20;;;;;;;26.55;17.35;;;10.90;1.00;;;;;;5012760;28;20401;-50
2022/05/09 04:00:46;;;;;;;23.63;16.67;;;10.90;1.00;;;;;;5011363;28;20408;-49
2022/05/09 04:03:12;;;;;;;26.10;18.30;;;10.80;1.00;;;;;;5010913;28;20396;-50
2022/05/09 04:05:38;;;;;;;23.20;17.10;;;10.80;1.00;;;;;;5011745;28;20427;-49
2022/05/09 04:08:07;;;;;;;24.35;16.73;;;10.90;1.00;;;;;;5011893;28;20439;-49
2022/05/09 04:10:36;;;;;;;22.27;15.98;;;10.90;1.00;;;;;;5018840;28;20902;-49
2022/05/09 04:13:02;;;;;;;23.58;15.48;;;11.00;1.00;;;;;;5017491;28;20399;-49
2022/05/09 04:18:32;;;;;;;25.80;15.88;;;11.00;1.00;;;;;;5014811;28;20428;-49
2022/05/09 04:20:58;;;;;;;22.20;15.73;;;11.10;1.00;;;;;;5022016;28;20756;-49
2022/05/09 04:23:24;;;;;;;22.20;15.77;;;11.10;1.00;;;;;;5020117;28;20396;-50
2022/05/09 04:25:50;;;;;;;22.87;16.13;;;11.20;1.00;;;;;;5017235;28;20876;-49
2022/05/09 04:28:18;;;;;;;21.67;15.25;;;11.20;1.00;;;;;;5021091;28;20401;-50
2022/05/09 04:30:44;;;;;;;22.52;15.40;;;11.20;1.00;;;;;;5007267;28;20707;-49
2022/05/09 04:33:10;;;;;;;23.30;16.55;;;11.20;1.00;;;;;;5007234;28;20836;-51
2022/05/09 04:35:38;;;;;;;21.65;15.38;;;11.30;1.00;;;;;;5010954;28;20850;-50
2022/05/09 04:38:04;;;;;;;20.40;15.35;;;11.30;1.00;;;;;;5022924;28;20899;-50
2022/05/09 04:40:32;;;;;;;24.07;16.37;;;11.40;1.00;;;;;;5016138;28;20486;-50
2022/05/09 04:43:00;;;;;;;23.08;16.30;;;11.50;1.00;;;;;;5030902;28;20461;-51
2022/05/09 04:45:28;;;;;;;24.83;16.02;;;11.60;1.00;;;;;;5024861;28;20621;-50
2022/05/09 04:47:54;;;;;;;20.50;15.40;;;11.70;1.00;;;;;;5027395;28;20415;-49
2022/05/09 04:50:22;;;;;;;21.88;15.20;;;12.00;1.00;;;;;;5012940;28;20420;-50
2022/05/09 04:52:48;;;;;;;22.17;14.95;;;12.40;1.00;;;;;;5030680;28;20405;-49
2022/05/09 04:55:15;;;;;;;19.33;14.45;;;12.80;1.00;;;;;;4987617;28;20403;-50
2022/05/09 04:57:42;;;;;;;20.35;13.15;;;13.50;1.00;;;;;;5020577;28;20389;-50
2022/05/09 05:00:20;;;;;;;17.05;12.00;;;14.20;1.00;;;;;;5018100;28;20392;-49
2022/05/09 05:02:46;;;;;;;18.15;11.40;;;15.10;1.00;;;;;;5013189;28;20437;-49
2022/05/09 05:05:12;;;;;;;17.27;12.13;;;16.00;99.90;;;;;;5005627;28;20493;-51
2022/05/09 05:07:37;;;;;;;15.55;11.40;;;16.60;1.00;;;;;;5018642;28;20888;-48
2022/05/09 05:10:04;;;;;;;16.07;12.07;;;17.20;99.90;;;;;;5027934;28;20776;-49
2022/05/09 05:12:31;;;;;;;17.63;12.05;;;17.50;48.60;;;;;;5009820;28;20922;-49
2022/05/09 05:14:57;;;;;;;15.55;11.30;;;17.90;1.00;;;;;;5010926;28;20411;-50
2022/05/09 05:17:23;;;;;;;18.63;11.30;;;18.10;1.00;;;;;;5013580;28;20488;-49
2022/05/09 05:19:49;;;;;;;25.70;14.70;;;18.60;1.00;;;;;;5024779;28;20753;-49
2022/05/09 05:22:15;;;;;;;18.85;12.50;;;19.20;1.00;;;;;;5010358;28;20393;-49
2022/05/09 05:24:46;;;;;;;18.65;11.85;;;20.00;1.00;;;;;;4998930;28;20960;-50
2022/05/09 05:27:13;;;;;;;17.33;11.57;;;20.80;1.00;;;;;;5008514;28;20420;-51
2022/05/09 05:29:41;;;;;;;16.35;11.52;;;21.60;99.90;;;;;;5018085;28;20511;-50
2022/05/09 05:32:36;;;;;;;16.88;13.00;;;22.50;99.90;;;;;;5017803;28;20393;-50
2022/05/09 05:35:06;;;;;;;14.77;13.00;;;23.40;99.90;;;;;;5017480;28;20403;-50
2022/05/09 05:37:33;;;;;;;16.00;12.00;;;24.00;59.80;;;;;;5011254;28;20404;-50
2022/05/09 05:40:00;;;;;;;14.70;11.70;;;24.10;99.90;;;;;;5019880;28;20404;-49
2022/05/09 05:42:27;;;;;;;15.40;11.90;;;23.50;99.90;;;;;;5022444;28;20399;-49
2022/05/09 05:44:53;;;;;;;15.85;11.48;;;22.80;99.90;;;;;;5021909;28;20951;-49
2022/05/09 05:47:19;;;;;;;16.00;13.50;;;23.10;99.90;;;;;;4997029;28;20508;-49
2022/05/09 05:49:45;;;;;;;16.67;11.75;;;23.30;99.90;;;;;;5017903;28;20461;-50
2022/05/09 05:52:11;;;;;;;17.88;12.43;;;23.20;99.90;;;;;;5028615;28;20391;-51
2022/05/09 05:54:40;;;;;;;16.65;12.50;;;23.30;99.90;;;;;;5023870;28;20856;-49
2022/05/09 05:57:16;;;;;;;17.10;12.45;;;23.30;99.90;;;;;;5020181;28;20403;-50
2022/05/09 05:59:53;;;;;;;16.73;12.68;;;23.50;99.90;;;;;;5016361;28;20392;-49
2022/05/09 06:02:20;;;;;;;15.07;12.05;;;23.70;99.90;;;;;;5025177;28;20407;-50
2022/05/09 06:04:46;;;;;;;16.90;12.30;;;24.10;99.90;;;;;;5003816;28;20423;-50
2022/05/09 06:07:12;;;;;;;17.65;15.80;;;23.90;99.90;;;;;;5009748;28;20838;-52
2022/05/09 06:09:42;;;;;;;16.85;14.95;;;24.10;99.90;;;;;;5020828;28;20413;-50
2022/05/09 06:12:08;;;;;;;15.93;14.20;;;25.00;99.90;;;;;;5019257;28;20408;-50
2022/05/09 06:14:34;;;;;;;17.67;15.88;;;25.50;99.90;;;;;;5013069;28;20884;-50
2022/05/09 06:17:00;;;;;;;14.87;12.20;;;25.90;99.90;;;;;;5008982;28;20421;-50
2022/05/09 06:19:25;;;;;;;15.40;12.57;;;26.60;99.90;;;;;;5008124;28;20392;-51
2022/05/09 06:21:51;;;;;;;15.40;11.20;;;28.20;99.90;;;;;;5009277;28;20431;-50
2022/05/09 06:24:18;;;;;;;14.20;11.37;;;26.70;99.90;;;;;;5008573;28;20388;-50
2022/05/09 06:26:45;;;;;;;13.88;11.85;;;26.70;99.90;;;;;;5008890;28;20808;-50
2022/05/09 06:29:13;;;;;;;15.40;12.40;;;26.60;99.90;;;;;;5008006;28;20448;-51
2022/05/09 06:31:39;;;;;;;17.33;12.38;;;26.70;99.90;;;;;;5009242;28;20830;-50
2022/05/09 06:34:06;;;;;;;15.10;12.18;;;26.60;99.90;;;;;;5009135;28;20456;-51
2022/05/09 06:36:36;;;;;;;16.48;11.80;;;26.50;99.90;;;;;;5011476;28;20976;-50
2022/05/09 06:39:04;;;;;;;13.90;11.15;;;26.70;99.90;;;;;;5009123;28;20447;-50
2022/05/09 06:41:30;;;;;;;16.30;10.77;;;26.90;99.90;;;;;;5007977;28;20865;-50
2022/05/09 06:43:55;;;;;;;14.00;11.83;;;26.70;99.90;;;;;;5005313;28;20435;-50
2022/05/09 06:46:21;;;;;;;15.07;11.30;;;27.30;99.90;;;;;;5008474;28;20405;-50
2022/05/09 06:48:47;;;;;;;15.48;11.60;;;27.70;99.90;;;;;;5008218;28;20400;-50
2022/05/09 06:51:13;;;;;;;14.20;11.30;;;28.30;99.90;;;;;;5007529;28;20896;-51
2022/05/09 06:53:39;;;;;;;14.15;11.50;;;28.70;99.90;;;;;;4990796;28;20416;-50
2022/05/09 06:56:05;;;;;;;15.35;12.32;;;28.20;99.90;;;;;;5007884;28;20470;-50
2022/05/09 06:58:31;;;;;;;14.48;11.40;;;27.90;99.90;;;;;;5007271;28;20501;-50
2022/05/09 07:00:57;;;;;;;12.93;10.95;;;27.90;99.90;;;;;;5008170;28;20993;-50
2022/05/09 07:03:23;;;;;;;13.30;9.77;;;27.60;99.90;;;;;;5007588;28;20389;-50
2022/05/09 07:05:51;;;;;;;14.40;11.68;;;28.10;99.90;;;;;;5008502;28;20656;-51
2022/05/09 07:08:23;;;;;;;15.20;10.97;;;28.80;99.90;;;;;;5008123;28;20487;-51
2022/05/09 07:10:49;;;;;;;14.32;12.00;;;28.60;99.90;;;;;;5008792;28;20391;-51
2022/05/09 07:13:14;;;;;;;15.45;12.60;;;28.40;99.90;;;;;;5008306;28;21204;-52
2022/05/09 07:15:40;;;;;;;13.85;10.98;;;28.10;99.90;;;;;;5008794;28;20388;-52
2022/05/09 07:18:06;;;;;;;15.10;11.73;;;28.10;99.90;;;;;;5008420;28;20844;-50
2022/05/09 07:20:34;;;;;;;15.93;12.05;;;28.60;99.90;;;;;;5008337;28;20388;-51
2022/05/09 07:23:09;;;;;;;15.40;12.50;;;28.90;99.90;;;;;;5008908;28;20458;-51
2022/05/09 07:25:35;;;;;;;15.10;12.48;;;28.40;99.90;;;;;;5008199;28;20397;-50
2022/05/09 07:28:01;;;;;;;14.70;11.40;;;28.20;99.90;;;;;;5008368;28;20526;-50
2022/05/09 07:30:28;;;;;;;13.57;10.48;;;28.70;99.90;;;;;;5008147;28;20388;-51
2022/05/09 07:32:54;;;;;;;15.20;11.70;;;28.90;99.90;;;;;;5008577;28;20400;-51
2022/05/09 07:35:21;;;;;;;12.93;10.70;;;29.20;99.90;;;;;;5007678;28;20385;-51
2022/05/09 07:37:47;;;;;;;14.90;12.90;;;29.60;99.90;;;;;;5008620;28;20378;-50
2022/05/09 07:40:16;;;;;;;16.58;11.85;;;29.50;99.90;;;;;;4990900;28;20396;-52
2022/05/09 07:42:44;;;;;;;14.53;10.50;;;29.90;99.90;;;;;;5008648;28;20381;-50
2022/05/09 07:45:13;;;;;;;12.87;10.90;;;30.40;99.90;;;;;;4990812;28;20762;-50
2022/05/09 07:47:39;;;;;;;13.82;10.73;;;30.80;99.90;;;;;;5008231;28;20385;-50
2022/05/09 07:50:07;;;;;;;13.52;10.10;;;30.70;99.90;;;;;;5008323;28;20764;-51
2022/05/09 07:52:32;;;;;;;13.95;10.18;;;30.80;99.90;;;;;;5007330;28;20898;-51
2022/05/09 07:54:58;;;;;;;14.30;10.70;;;30.80;99.90;;;;;;5008481;28;20850;-50
2022/05/09 07:57:24;;;;;;;13.60;11.07;;;30.50;99.90;;;;;;5007917;28;20450;-51
2022/05/09 07:59:49;;;;;;;13.50;9.17;;;30.50;99.90;;;;;;5008543;28;20389;-51
2022/05/09 08:02:15;;;;;;;13.52;10.57;;;31.80;99.90;;;;;;5008175;28;20388;-52
2022/05/09 08:04:41;;;;;;;12.27;10.27;;;32.50;99.90;;;;;;5011597;28;20389;-51
2022/05/09 08:07:07;;;;;;;13.88;10.20;;;32.70;99.90;;;;;;5011655;28;20806;-51
2022/05/09 08:09:33;;;;;;;14.90;10.50;;;33.30;99.90;;;;;;5011310;28;20385;-51
2022/05/09 08:12:00;;;;;;;15.40;10.10;;;32.30;99.90;;;;;;5011340;28;20388;-51
2022/05/09 08:14:27;;;;;;;14.23;12.70;;;31.30;99.90;;;;;;5010973;28;20389;-51
2022/05/09 08:16:54;;;;;;;13.70;10.20;;;30.80;99.90;;;;;;5011448;28;20499;-51
2022/05/09 08:19:20;;;;;;;16.10;11.20;;;31.60;99.90;;;;;;5010677;28;20431;-50
2022/05/09 08:21:49;;;;;;;13.80;11.80;;;30.70;99.90;;;;;;5011607;28;20392;-51
2022/05/09 08:24:15;;;;;;;16.52;14.93;;;30.80;99.90;;;;;;5011218;28;20393;-52
2022/05/09 08:26:41;;;;;;;13.18;11.60;;;30.60;99.90;;;;;;5011469;28;20415;-51
2022/05/09 08:29:07;;;;;;;14.23;12.13;;;30.70;99.90;;;;;;5011162;28;20389;-51
2022/05/09 08:31:33;;;;;;;13.40;11.20;;;31.20;99.90;;;;;;5010479;28;20392;-51
2022/05/09 08:33:59;;;;;;;14.10;12.45;;;30.80;99.90;;;;;;5011296;28;20392;-50
2022/05/09 08:39:10;;;;;;;12.05;10.07;;;30.70;99.90;;;;;;5011176;28;20523;-50
2022/05/09 08:42:03;;;;;;;13.60;10.98;;;32.00;99.90;;;;;;5010358;28;20385;-51
2022/05/09 08:45:00;;;;;;;11.65;9.75;;;32.50;99.90;;;;;;5010116;28;20884;-50
2022/05/09 08:48:01;;;;;;;13.07;10.40;;;32.50;99.90;;;;;;5009927;28;20777;-51
2022/05/09 08:51:09;;;;;;;11.40;9.50;;;31.60;99.90;;;;;;4992615;28;20409;-50
2022/05/09 08:53:45;;;;;;;12.50;9.60;;;31.40;99.90;;;;;;5010121;28;20381;-50
2022/05/09 08:56:15;;;;;;;13.77;10.00;;;33.00;99.90;;;;;;5011257;28;20467;-50
2022/05/09 08:59:01;;;;;;;14.15;10.60;;;32.70;99.90;;;;;;5010427;28;20420;-50
2022/05/09 09:01:54;;;;;;;11.48;9.38;;;33.10;99.90;;;;;;5010112;28;20420;-50
2022/05/09 09:04:23;;;;;;;11.60;9.60;;;33.10;99.90;;;;;;5009754;28;20478;-51
2022/05/09 09:06:58;;;;;;;12.07;9.57;;;33.80;99.90;;;;;;5010937;28;20551;-51
2022/05/09 09:09:41;;;;;;;12.40;9.87;;;34.10;99.90;;;;;;5009789;28;20384;-51
2022/05/09 09:12:27;;;;;;;12.65;9.38;;;33.30;99.90;;;;;;5010965;28;21297;-51
2022/05/09 09:15:05;;;;;;;11.70;9.63;;;34.00;99.90;;;;;;5009205;28;20385;-51
2022/05/09 09:17:42;;;;;;;13.57;10.40;;;34.00;99.90;;;;;;5009921;28;20443;-51
2022/05/09 09:20:23;;;;;;;11.00;8.98;;;35.30;99.90;;;;;;5010963;28;20394;-51
2022/05/09 09:23:14;;;;;;;15.57;13.98;;;34.50;99.90;;;;;;5010539;28;20464;-51
2022/05/09 09:26:00;;;;;;;12.00;9.40;;;32.50;99.90;;;;;;5009991;28;20420;-51
2022/05/09 09:28:28;;;;;;;12.52;9.50;;;32.70;99.90;;;;;;5009704;28;20396;-51
2022/05/09 09:30:55;;;;;;;13.73;9.45;;;33.80;99.90;;;;;;5010631;28;20561;-51
2022/05/09 09:33:21;;;;;;;11.18;8.32;;;34.30;99.90;;;;;;4991886;28;20389;-51
2022/05/09 09:35:51;;;;;;;11.32;9.15;;;34.10;99.90;;;;;;5010384;28;20384;-51
2022/05/09 09:38:28;;;;;;;11.50;9.35;;;33.90;99.90;;;;;;5009745;28;20488;-52
2022/05/09 09:40:54;;;;;;;11.87;8.80;;;34.40;99.90;;;;;;5010445;28;20377;-52
2022/05/09 09:43:19;;;;;;;11.50;8.60;;;34.20;99.90;;;;;;5009557;28;20400;-52
2022/05/09 09:46:00;;;;;;;11.95;9.02;;;34.20;99.90;;;;;;5010000;28;20423;-51
2022/05/09 09:48:25;;;;;;;12.15;8.30;;;34.10;99.90;;;;;;5008902;28;20401;-51
2022/05/09 09:51:24;;;;;;;12.83;8.93;;;33.20;99.90;;;;;;5009954;28;20397;-51
2022/05/09 09:53:52;;;;;;;11.52;8.88;;;33.40;99.90;;;;;;4965869;28;20424;-51
2022/05/09 09:56:21;;;;;;;14.05;12.65;;;33.80;99.90;;;;;;5009215;28;20551;-52
2022/05/09 09:59:06;;;;;;;14.27;12.90;;;33.40;99.90;;;;;;5009855;28;20400;-51
2022/05/09 10:01:33;;;;;;;10.10;7.95;;;33.50;99.90;;;;;;5008871;28;20480;-51
